Time;durP1;ratioP1;P1;durP2;ratioP2;P2;SDS_P1;SDS_P2;PMS_P1;PMS_P2;Temp;Humidity;BMP_temperature;BMP_pressure;BME280_temperature;BME280_humidity;BME280_pressure;Samples;Min_cycle;Max_cycle;Signal;HPM_P1;HPM_P2
2021/01/12 00:02:24;;;;;;;13.20;9.65;;;-1.70;1.00;;;;;;5046922;28;20302;-72
2021/01/12 00:04:52;;;;;;;16.50;10.50;;;-1.60;1.00;;;;;;5056511;28;20245;-72
2021/01/12 00:07:21;;;;;;;18.77;10.77;;;-1.60;1.00;;;;;;5041368;28;20218;-71
2021/01/12 00:09:48;;;;;;;14.65;10.55;;;-1.70;1.00;;;;;;5055476;28;20222;-71
2021/01/12 00:12:18;;;;;;;17.63;11.80;;;-1.60;1.00;;;;;;5041279;28;20274;-72
2021/01/12 00:14:46;;;;;;;18.98;10.80;;;-1.70;1.00;;;;;;5052629;28;20234;-70
2021/01/12 00:17:14;;;;;;;19.48;11.63;;;-1.60;1.00;;;;;;5038908;28;20275;-72
2021/01/12 00:19:42;;;;;;;20.17;11.65;;;-1.70;1.00;;;;;;5058187;28;20745;-71
2021/01/12 00:22:14;;;;;;;16.30;9.90;;;-1.70;1.00;;;;;;5052586;28;20231;-71
2021/01/12 00:24:43;;;;;;;17.60;10.48;;;-1.60;1.00;;;;;;5059194;28;20247;-72
2021/01/12 00:27:10;;;;;;;21.85;13.05;;;-1.60;1.00;;;;;;5051232;28;20244;-71
2021/01/12 00:29:39;;;;;;;19.20;11.07;;;-1.60;99.90;;;;;;5053560;28;20212;-71
2021/01/12 00:32:07;;;;;;;15.63;10.10;;;-1.60;1.00;;;;;;5053109;28;20261;-71
2021/01/12 00:34:35;;;;;;;15.45;10.10;;;-1.50;1.00;;;;;;5060068;28;20235;-71
2021/01/12 00:37:02;;;;;;;18.40;10.65;;;-1.40;99.90;;;;;;5050601;28;20742;-73
2021/01/12 00:39:30;;;;;;;16.20;10.05;;;-1.50;99.90;;;;;;5055227;28;20219;-71
2021/01/12 00:41:57;;;;;;;18.23;10.85;;;-1.60;1.00;;;;;;5061422;28;20230;-70
2021/01/12 00:44:25;;;;;;;20.73;10.90;;;-1.50;1.00;;;;;;5062400;28;20234;-71
2021/01/12 00:46:54;;;;;;;17.40;10.68;;;-1.50;1.00;;;;;;5051771;28;20223;-72
2021/01/12 00:49:22;;;;;;;16.05;11.48;;;-1.50;1.00;;;;;;5058870;28;20203;-71
2021/01/12 00:51:50;;;;;;;17.17;10.60;;;-1.50;1.00;;;;;;5051546;28;21107;-71
2021/01/12 00:54:19;;;;;;;16.73;9.73;;;-1.50;1.00;;;;;;5054877;28;20234;-72
2021/01/12 00:56:48;;;;;;;19.23;10.73;;;-1.50;1.00;;;;;;5051361;28;20298;-70
2021/01/12 00:59:16;;;;;;;16.00;9.73;;;-1.50;1.00;;;;;;5046145;28;20217;-71
2021/01/12 01:01:44;;;;;;;14.68;9.50;;;-1.50;1.00;;;;;;5050241;28;20848;-72
2021/01/12 01:04:13;;;;;;;11.88;9.00;;;-1.50;1.00;;;;;;5055825;28;20231;-71
2021/01/12 01:06:41;;;;;;;15.75;11.43;;;-1.50;1.00;;;;;;5040255;28;20208;-71
2021/01/12 01:09:09;;;;;;;20.27;11.45;;;-1.50;43.80;;;;;;5050669;28;20686;-71
2021/01/12 01:11:41;;;;;;;15.65;9.45;;;-1.50;99.90;;;;;;5058592;28;20262;-71
2021/01/12 01:14:08;;;;;;;15.32;8.50;;;-1.40;1.00;;;;;;5046639;28;20601;-71
2021/01/12 01:16:36;;;;;;;19.70;11.05;;;-1.40;87.50;;;;;;5055376;28;20692;-71
2021/01/12 01:19:04;;;;;;;13.73;9.40;;;-1.40;99.90;;;;;;5049882;28;20213;-70
2021/01/12 01:21:33;;;;;;;14.15;9.55;;;-1.30;36.50;;;;;;5052826;28;20211;-72
2021/01/12 01:24:01;;;;;;;12.25;7.43;;;-1.30;99.90;;;;;;5050423;28;20235;-71
2021/01/12 01:26:28;;;;;;;11.00;8.85;;;-1.20;18.70;;;;;;5050000;28;20214;-71
2021/01/12 01:28:56;;;;;;;17.83;9.73;;;-1.10;99.90;;;;;;5048967;28;20233;-72
2021/01/12 01:31:24;;;;;;;13.30;9.25;;;-1.00;1.00;;;;;;5052614;28;20582;-71
2021/01/12 01:33:52;;;;;;;14.07;9.82;;;-1.10;1.00;;;;;;5049406;28;20230;-71
2021/01/12 01:36:19;;;;;;;11.88;8.05;;;-1.10;1.00;;;;;;5055668;28;20223;-72
2021/01/12 01:38:47;;;;;;;13.82;8.52;;;-1.10;1.00;;;;;;5051254;28;20207;-71
2021/01/12 01:41:14;;;;;;;12.50;9.20;;;-1.10;1.00;;;;;;5054210;28;20228;-72
2021/01/12 01:43:42;;;;;;;13.18;8.98;;;-1.10;99.50;;;;;;5053671;28;20234;-71
2021/01/12 01:46:09;;;;;;;12.52;9.13;;;-1.10;25.20;;;;;;5046831;28;20225;-72
2021/01/12 01:48:37;;;;;;;15.50;8.73;;;-1.10;99.90;;;;;;5042995;28;20210;-71
2021/01/12 01:51:06;;;;;;;13.82;7.80;;;-1.00;99.90;;;;;;5052569;28;20309;-71
2021/01/12 01:53:35;;;;;;;13.80;8.07;;;-0.90;29.90;;;;;;5056336;28;20234;-70
2021/01/12 01:56:05;;;;;;;8.43;7.30;;;-0.80;1.00;;;;;;5047765;28;20214;-71
2021/01/12 01:58:37;;;;;;;10.27;7.40;;;-0.80;1.00;;;;;;5041855;28;20215;-71
2021/01/12 02:01:05;;;;;;;8.43;7.07;;;-0.70;1.00;;;;;;5052415;28;20211;-71
2021/01/12 02:03:39;;;;;;;12.73;7.28;;;-0.70;1.00;;;;;;5053856;28;20309;-72
2021/01/12 02:06:16;;;;;;;10.82;8.07;;;-0.70;1.00;;;;;;5054600;28;20232;-72
2021/01/12 02:08:52;;;;;;;12.65;7.93;;;-0.70;1.00;;;;;;5047477;28;20205;-74
2021/01/12 02:11:23;;;;;;;9.30;6.57;;;-0.70;1.00;;;;;;5052395;28;20686;-72
2021/01/12 02:13:56;;;;;;;10.10;6.40;;;-0.80;1.00;;;;;;5052553;28;20814;-72
2021/01/12 02:16:25;;;;;;;9.68;6.78;;;-0.80;1.00;;;;;;5047151;28;20689;-73
2021/01/12 02:18:54;;;;;;;10.20;7.15;;;-0.90;38.80;;;;;;5056374;28;20234;-72
2021/01/12 02:21:22;;;;;;;12.88;7.65;;;-0.80;99.90;;;;;;5053839;28;20204;-71
2021/01/12 02:23:54;;;;;;;8.65;5.75;;;-0.90;99.90;;;;;;5055554;28;20711;-72
2021/01/12 02:26:22;;;;;;;7.63;5.15;;;-0.90;99.90;;;;;;5052838;28;20215;-71
2021/01/12 02:28:49;;;;;;;9.00;6.85;;;-0.90;99.90;;;;;;5056252;28;20817;-72
2021/01/12 02:31:16;;;;;;;11.60;6.60;;;-1.00;1.00;;;;;;5048741;28;20256;-71
2021/01/12 02:33:47;;;;;;;9.80;7.32;;;-1.00;99.90;;;;;;5058831;28;20302;-71
2021/01/12 02:36:22;;;;;;;13.93;7.70;;;-1.00;1.00;;;;;;5058318;28;20227;-71
2021/01/12 02:38:49;;;;;;;12.07;6.65;;;-1.00;1.00;;;;;;5043256;28;20220;-71
2021/01/12 02:41:19;;;;;;;9.85;6.40;;;-1.00;1.00;;;;;;5052589;28;20241;-71
2021/01/12 02:43:47;;;;;;;9.30;5.80;;;-0.90;99.90;;;;;;5052035;28;20232;-71
2021/01/12 02:46:16;;;;;;;9.73;6.38;;;-0.90;99.90;;;;;;5056014;28;20215;-72
2021/01/12 02:48:43;;;;;;;8.38;6.90;;;-0.80;99.90;;;;;;5050794;28;20210;-70
2021/01/12 02:51:10;;;;;;;10.80;6.40;;;-0.90;99.90;;;;;;5057861;28;20234;-71
2021/01/12 02:53:37;;;;;;;11.50;6.53;;;-1.00;99.90;;;;;;5056277;28;20230;-71
2021/01/12 02:56:05;;;;;;;8.32;5.38;;;-1.00;99.90;;;;;;5049711;28;20212;-71
2021/01/12 02:58:33;;;;;;;9.32;5.97;;;-1.00;1.00;;;;;;5057092;28;20203;-72
2021/01/12 03:01:01;;;;;;;9.20;6.40;;;-0.90;99.90;;;;;;5064188;28;20234;-71
2021/01/12 03:03:28;;;;;;;8.73;5.95;;;-0.90;99.90;;;;;;5050069;28;20230;-71
2021/01/12 03:05:55;;;;;;;12.57;6.13;;;-0.80;1.00;;;;;;5052896;28;20916;-71
2021/01/12 03:08:22;;;;;;;8.60;5.90;;;-0.80;99.90;;;;;;5044890;28;20208;-71
2021/01/12 03:10:50;;;;;;;9.70;6.78;;;-0.80;1.00;;;;;;5062161;28;20216;-71
2021/01/12 03:13:17;;;;;;;7.07;4.70;;;-0.70;99.90;;;;;;5051340;28;20228;-71
2021/01/12 03:15:45;;;;;;;8.20;5.50;;;-0.70;99.90;;;;;;5061278;28;20211;-71
2021/01/12 03:18:12;;;;;;;8.32;5.22;;;-0.70;1.00;;;;;;5053097;28;20235;-70
2021/01/12 03:20:39;;;;;;;9.25;6.07;;;-0.70;1.00;;;;;;5048524;28;20207;-71
2021/01/12 03:23:06;;;;;;;7.07;4.75;;;-0.60;1.00;;;;;;5045071;28;20219;-72
2021/01/12 03:25:33;;;;;;;8.60;5.55;;;-0.70;1.00;;;;;;5060329;28;20703;-72
2021/01/12 03:28:00;;;;;;;6.70;4.60;;;-0.60;99.90;;;;;;5048700;28;20209;-71
2021/01/12 03:30:27;;;;;;;8.70;5.45;;;-0.60;95.80;;;;;;5047284;28;20208;-73
2021/01/12 03:32:55;;;;;;;8.95;5.43;;;-0.60;78.50;;;;;;5046327;28;20231;-72
2021/01/12 03:35:23;;;;;;;6.10;4.25;;;-0.60;99.90;;;;;;5051072;28;20289;-73
2021/01/12 03:37:50;;;;;;;8.30;5.10;;;-0.60;1.00;;;;;;5054806;28;20208;-73
2021/01/12 03:40:17;;;;;;;9.07;5.55;;;-0.60;99.90;;;;;;5055831;28;20216;-71
2021/01/12 03:42:44;;;;;;;8.90;5.70;;;-0.60;99.90;;;;;;5043445;28;20228;-72
2021/01/12 03:45:12;;;;;;;6.60;4.78;;;-0.70;1.00;;;;;;5051790;28;20236;-72
2021/01/12 03:47:39;;;;;;;7.55;4.65;;;-0.60;1.00;;;;;;5047773;28;20215;-72
2021/01/12 03:50:09;;;;;;;7.82;4.65;;;-0.60;1.00;;;;;;5050643;28;20204;-73
2021/01/12 03:52:36;;;;;;;6.15;4.22;;;-0.50;99.90;;;;;;5048300;28;20758;-72
2021/01/12 03:55:05;;;;;;;7.57;5.30;;;-0.50;1.00;;;;;;5055707;28;20231;-72
2021/01/12 03:57:33;;;;;;;4.22;3.20;;;-0.50;99.90;;;;;;5047572;28;20208;-72
2021/01/12 04:00:00;;;;;;;6.30;4.70;;;-0.40;99.90;;;;;;5057222;28;20222;-71
2021/01/12 04:02:27;;;;;;;8.32;4.82;;;-0.40;99.90;;;;;;5054800;28;20206;-72
2021/01/12 04:04:55;;;;;;;6.63;5.20;;;-0.50;99.90;;;;;;5054532;28;20760;-71
2021/01/12 04:07:24;;;;;;;6.28;4.53;;;-0.50;99.90;;;;;;5048184;28;20212;-70
2021/01/12 04:09:52;;;;;;;6.13;4.72;;;-0.40;99.90;;;;;;5058080;28;20219;-71
2021/01/12 04:12:19;;;;;;;8.65;5.45;;;-0.40;32.00;;;;;;5055692;28;20230;-71
2021/01/12 04:14:46;;;;;;;7.97;4.60;;;-0.40;99.90;;;;;;5047387;28;20308;-71
2021/01/12 04:17:13;;;;;;;7.63;5.22;;;-0.40;99.80;;;;;;5051959;28;20203;-71
2021/01/12 04:19:41;;;;;;;8.45;4.93;;;-0.40;1.00;;;;;;5060535;28;20605;-72
2021/01/12 04:22:08;;;;;;;8.00;4.20;;;-0.30;99.90;;;;;;5053151;28;20217;-72
2021/01/12 04:24:36;;;;;;;8.98;5.25;;;-0.30;1.00;;;;;;5040638;28;20228;-72
2021/01/12 04:27:04;;;;;;;7.70;4.53;;;-0.30;99.90;;;;;;5054717;28;20827;-72
2021/01/12 04:29:31;;;;;;;5.95;4.53;;;-0.30;1.00;;;;;;5054441;28;20219;-73
2021/01/12 04:31:58;;;;;;;7.80;5.45;;;-0.30;99.90;;;;;;5060321;28;20231;-72
2021/01/12 04:34:26;;;;;;;6.70;4.72;;;-0.30;99.90;;;;;;5051297;28;20307;-72
2021/01/12 04:36:53;;;;;;;9.23;6.25;;;-0.30;99.90;;;;;;5053008;28;20743;-72
2021/01/12 04:39:20;;;;;;;6.47;4.10;;;-0.30;99.90;;;;;;5046295;28;20373;-72
2021/01/12 04:41:48;;;;;;;7.28;4.60;;;-0.30;14.60;;;;;;5056982;28;20687;-72
2021/01/12 04:44:15;;;;;;;9.45;6.00;;;-0.30;99.90;;;;;;5058517;28;20845;-73
2021/01/12 04:46:42;;;;;;;9.90;5.63;;;-0.40;1.00;;;;;;5057625;28;20241;-73
2021/01/12 04:49:10;;;;;;;9.20;5.53;;;-0.40;99.90;;;;;;5051801;28;20732;-71
2021/01/12 04:51:37;;;;;;;12.98;6.07;;;-0.40;1.00;;;;;;5055620;28;20215;-74
2021/01/12 04:54:05;;;;;;;9.77;5.32;;;-0.40;74.40;;;;;;5054996;28;20321;-73
2021/01/12 04:56:32;;;;;;;7.88;5.60;;;-0.40;24.50;;;;;;5053524;28;20217;-74
2021/01/12 04:59:00;;;;;;;7.13;4.70;;;-0.30;32.10;;;;;;5060697;28;20212;-73
2021/01/12 05:01:29;;;;;;;9.77;5.40;;;-0.30;99.90;;;;;;5041213;28;20200;-73
2021/01/12 05:03:57;;;;;;;10.05;5.60;;;-0.30;1.00;;;;;;5055199;28;20550;-73
2021/01/12 05:06:26;;;;;;;9.35;5.20;;;-0.20;10.90;;;;;;5044912;28;20282;-72
2021/01/12 05:08:57;;;;;;;9.07;5.00;;;-0.20;99.90;;;;;;5049781;28;20226;-73
2021/01/12 05:11:27;;;;;;;10.68;5.13;;;-0.20;99.90;;;;;;5054635;28;20212;-73
2021/01/12 05:13:56;;;;;;;7.15;5.07;;;-0.20;1.00;;;;;;5055169;28;20234;-74
2021/01/12 05:16:24;;;;;;;6.38;4.70;;;-0.10;1.00;;;;;;5054059;28;20239;-74
2021/01/12 05:18:53;;;;;;;9.80;6.43;;;-0.20;1.00;;;;;;5057760;28;20267;-74
2021/01/12 05:21:23;;;;;;;7.07;4.40;;;-0.10;1.00;;;;;;5052358;28;20219;-72
2021/01/12 05:23:52;;;;;;;8.10;4.00;;;-0.20;1.00;;;;;;5044331;28;20260;-73
2021/01/12 05:26:20;;;;;;;8.45;6.50;;;-0.20;1.00;;;;;;5053065;28;20828;-71
2021/01/12 05:28:47;;;;;;;10.60;5.90;;;-0.20;26.30;;;;;;5047003;28;20208;-72
2021/01/12 05:31:15;;;;;;;8.43;6.85;;;-0.20;1.00;;;;;;5056646;28;20226;-71
2021/01/12 05:33:44;;;;;;;6.50;4.35;;;-0.30;99.90;;;;;;5049831;28;20318;-71
2021/01/12 05:36:11;;;;;;;6.25;4.93;;;-0.20;1.00;;;;;;5059690;28;20620;-72
2021/01/12 05:38:38;;;;;;;10.80;6.40;;;-0.10;99.90;;;;;;5053234;28;20199;-71
2021/01/12 05:41:06;;;;;;;9.48;6.68;;;-0.10;99.90;;;;;;5048918;28;21000;-72
2021/01/12 05:43:37;;;;;;;7.78;6.22;;;-0.10;99.90;;;;;;5050859;28;20311;-73
2021/01/12 05:46:08;;;;;;;9.95;5.85;;;-0.10;99.90;;;;;;5048618;28;20235;-71
2021/01/12 05:48:37;;;;;;;6.78;5.40;;;-0.10;59.20;;;;;;5044881;28;20300;-72
2021/01/12 05:51:06;;;;;;;9.10;5.68;;;-0.10;99.90;;;;;;5059739;28;20215;-71
2021/01/12 05:54:00;;;;;;;7.43;4.22;;;-0.10;99.90;;;;;;5050720;28;20715;-72
2021/01/12 05:56:29;;;;;;;8.98;5.60;;;-0.10;99.90;;;;;;5025096;28;20300;-71
2021/01/12 05:58:58;;;;;;;10.85;5.55;;;-0.10;99.90;;;;;;5052225;28;20212;-70
2021/01/12 06:01:38;;;;;;;7.78;4.97;;;0.00;99.90;;;;;;5047546;28;20210;-71
2021/01/12 06:04:10;;;;;;;6.22;4.35;;;0.00;99.90;;;;;;5043926;28;20213;-71
2021/01/12 06:06:41;;;;;;;7.15;3.70;;;0.00;1.00;;;;;;5040425;28;20740;-71
2021/01/12 06:09:10;;;;;;;10.50;5.10;;;-0.10;1.00;;;;;;5043154;28;20209;-72
2021/01/12 06:11:38;;;;;;;8.52;5.25;;;-0.10;1.00;;;;;;5045641;28;20247;-70
2021/01/12 06:14:08;;;;;;;7.53;4.65;;;-0.10;1.00;;;;;;5051937;28;20105;-70
2021/01/12 06:16:37;;;;;;;8.00;5.35;;;0.00;1.00;;;;;;5047948;28;20476;-72
2021/01/12 06:19:10;;;;;;;10.07;6.05;;;-0.10;1.00;;;;;;5048189;28;20641;-69
2021/01/12 06:22:06;;;;;;;8.60;5.93;;;-0.10;1.00;;;;;;5049118;28;20477;-70
2021/01/12 06:24:40;;;;;;;8.38;4.75;;;0.00;1.00;;;;;;5050327;28;20634;-70
2021/01/12 06:27:10;;;;;;;6.55;4.57;;;0.10;1.00;;;;;;5042463;28;20213;-70
2021/01/12 06:29:39;;;;;;;7.28;5.70;;;0.10;1.00;;;;;;5049571;28;21053;-70
2021/01/12 06:32:07;;;;;;;10.88;5.20;;;0.10;1.00;;;;;;5053897;28;20212;-71
2021/01/12 06:34:40;;;;;;;7.93;4.15;;;0.00;1.00;;;;;;5043469;28;20239;-71
2021/01/12 06:37:12;;;;;;;7.97;5.43;;;0.10;1.00;;;;;;5042318;28;20877;-71
2021/01/12 06:39:42;;;;;;;5.40;4.25;;;0.10;1.00;;;;;;5042613;28;20584;-70
2021/01/12 06:42:10;;;;;;;10.63;5.47;;;0.20;1.00;;;;;;5049988;28;20308;-72
2021/01/12 06:44:40;;;;;;;6.72;5.10;;;0.20;1.00;;;;;;5040259;28;20844;-69
2021/01/12 06:47:09;;;;;;;6.10;4.45;;;0.20;99.90;;;;;;5046013;28;20208;-70
2021/01/12 06:49:37;;;;;;;7.38;4.50;;;0.30;99.90;;;;;;5048756;28;20212;-70
2021/01/12 06:52:06;;;;;;;6.07;3.70;;;0.30;1.00;;;;;;5044808;28;20207;-69
2021/01/12 06:54:40;;;;;;;9.20;5.60;;;0.30;1.00;;;;;;5047651;28;20258;-69
2021/01/12 06:57:08;;;;;;;6.22;4.32;;;0.20;1.00;;;;;;5047420;28;20275;-69
2021/01/12 06:59:40;;;;;;;6.57;4.20;;;0.30;1.00;;;;;;5048059;28;21129;-68
2021/01/12 07:02:24;;;;;;;10.75;3.97;;;0.30;1.00;;;;;;5027030;28;20204;-70
2021/01/12 07:04:56;;;;;;;4.57;3.88;;;0.30;1.00;;;;;;5042570;28;20236;-71
2021/01/12 07:07:24;;;;;;;5.30;3.97;;;0.30;1.00;;;;;;5044502;28;20204;-70
2021/01/12 07:09:57;;;;;;;9.80;5.53;;;0.30;1.00;;;;;;5046708;28;20212;-70
2021/01/12 07:12:27;;;;;;;6.07;3.83;;;0.30;1.00;;;;;;5040288;28;20232;-70
2021/01/12 07:14:55;;;;;;;7.80;4.45;;;0.30;1.00;;;;;;5045576;28;20310;-70
2021/01/12 07:17:27;;;;;;;5.97;4.80;;;0.30;1.00;;;;;;5044985;28;20204;-69
2021/01/12 07:20:09;;;;;;;6.45;4.90;;;0.30;1.00;;;;;;5048585;28;20212;-69
2021/01/12 07:22:38;;;;;;;7.13;3.78;;;0.40;1.00;;;;;;5044025;28;20236;-69
2021/01/12 07:25:09;;;;;;;6.25;3.47;;;0.40;1.00;;;;;;5052608;28;20232;-69
2021/01/12 07:27:36;;;;;;;8.07;4.60;;;0.40;1.00;;;;;;5055797;28;20682;-70
2021/01/12 07:30:08;;;;;;;5.30;4.18;;;0.40;1.00;;;;;;5045962;28;20859;-70
2021/01/12 07:32:38;;;;;;;6.10;3.60;;;0.50;1.00;;;;;;5045722;28;20235;-70
2021/01/12 07:35:09;;;;;;;6.72;4.82;;;0.50;1.00;;;;;;5045026;28;20246;-69
2021/01/12 07:37:39;;;;;;;9.05;5.10;;;0.60;1.00;;;;;;5052633;28;20211;-70
2021/01/12 07:40:09;;;;;;;7.95;4.68;;;0.60;1.00;;;;;;5042364;28;20227;-70
2021/01/12 07:42:46;;;;;;;6.25;4.25;;;0.60;1.00;;;;;;5051142;28;20723;-70
2021/01/12 07:45:15;;;;;;;3.38;2.75;;;0.70;1.00;;;;;;5048284;28;20240;-72
2021/01/12 07:47:43;;;;;;;9.57;5.47;;;0.70;1.00;;;;;;5053780;28;20212;-71
2021/01/12 07:50:12;;;;;;;7.18;4.63;;;0.60;1.00;;;;;;5045949;28;20210;-71
2021/01/12 07:52:39;;;;;;;6.88;4.38;;;0.60;1.00;;;;;;5048968;28;20825;-71
2021/01/12 07:55:09;;;;;;;6.13;3.45;;;0.60;1.00;;;;;;5050829;28;20655;-72
2021/01/12 07:57:37;;;;;;;5.97;3.92;;;0.60;1.00;;;;;;5044691;28;20616;-71
2021/01/12 08:00:07;;;;;;;5.82;4.15;;;0.60;1.00;;;;;;5056632;28;20222;-71
2021/01/12 08:02:35;;;;;;;5.70;3.60;;;0.70;1.00;;;;;;5050694;28;20289;-70
2021/01/12 08:05:05;;;;;;;5.87;4.80;;;0.70;1.00;;;;;;5049242;28;20493;-71
2021/01/12 08:07:33;;;;;;;4.80;3.70;;;0.70;1.00;;;;;;5046315;28;20462;-71
2021/01/12 08:10:01;;;;;;;7.15;4.50;;;0.80;1.00;;;;;;5047101;28;20734;-70
2021/01/12 08:12:29;;;;;;;7.45;4.30;;;0.80;1.00;;;;;;5050900;28;20221;-71
2021/01/12 08:15:08;;;;;;;7.47;4.75;;;0.80;1.00;;;;;;5053809;28;20315;-70
2021/01/12 08:17:37;;;;;;;8.00;4.82;;;0.80;1.00;;;;;;5047525;28;20212;-71
2021/01/12 08:20:05;;;;;;;7.90;4.05;;;0.90;1.00;;;;;;5044062;28;20217;-73
2021/01/12 08:22:33;;;;;;;6.68;5.05;;;0.80;1.00;;;;;;5046821;28;20208;-71
2021/01/12 08:25:08;;;;;;;10.23;5.03;;;0.80;2.70;;;;;;5044921;28;20229;-72
2021/01/12 08:27:36;;;;;;;5.88;3.83;;;0.90;6.50;;;;;;5052521;28;20209;-71
2021/01/12 08:30:08;;;;;;;9.40;5.72;;;0.90;9.90;;;;;;5051929;28;20296;-70
2021/01/12 08:32:39;;;;;;;7.00;4.75;;;0.80;20.40;;;;;;5049938;28;20744;-70
2021/01/12 08:35:09;;;;;;;4.80;3.28;;;0.80;39.30;;;;;;5048883;28;20229;-74
2021/01/12 08:37:37;;;;;;;5.95;3.70;;;0.90;47.70;;;;;;5047019;28;20216;-69
2021/01/12 08:40:07;;;;;;;6.40;3.92;;;0.90;48.80;;;;;;5051161;28;20241;-71
2021/01/12 08:42:38;;;;;;;3.17;2.72;;;0.90;50.10;;;;;;5041466;28;20213;-72
2021/01/12 08:45:16;;;;;;;4.72;3.22;;;1.00;55.20;;;;;;5048992;28;20240;-71
2021/01/12 08:47:45;;;;;;;3.65;2.78;;;1.00;55.70;;;;;;5056021;28;20212;-71
2021/01/12 08:50:21;;;;;;;1.25;1.15;;;1.10;56.30;;;;;;5053262;28;20631;-71
2021/01/12 08:52:50;;;;;;;1.90;1.50;;;1.20;56.70;;;;;;5043809;28;20224;-70
2021/01/12 08:55:18;;;;;;;2.45;1.40;;;1.30;56.00;;;;;;5048932;28;20222;-71
2021/01/12 08:57:57;;;;;;;2.10;1.88;;;1.40;52.90;;;;;;5042845;28;20208;-72
2021/01/12 09:00:29;;;;;;;2.65;1.35;;;1.50;40.80;;;;;;5043157;28;20942;-70
2021/01/12 09:02:56;;;;;;;2.20;1.70;;;1.60;33.10;;;;;;5043397;28;20215;-72
2021/01/12 09:05:24;;;;;;;1.88;1.77;;;1.60;32.80;;;;;;5052261;28;20244;-71
2021/01/12 09:08:03;;;;;;;1.70;1.20;;;1.70;32.40;;;;;;5046816;28;20226;-70
2021/01/12 09:10:31;;;;;;;1.25;1.15;;;1.70;25.50;;;;;;5048114;28;20664;-71
2021/01/12 09:13:00;;;;;;;1.17;1.08;;;1.80;14.60;;;;;;5051105;28;20634;-71
2021/01/12 09:15:29;;;;;;;0.95;0.90;;;1.80;15.60;;;;;;5047481;28;20280;-70
2021/01/12 09:18:07;;;;;;;1.70;1.60;;;1.80;12.20;;;;;;5069257;28;20212;-70
2021/01/12 09:20:35;;;;;;;1.40;1.02;;;1.90;8.10;;;;;;5042730;28;20211;-72
2021/01/12 09:23:05;;;;;;;1.30;1.15;;;1.90;12.70;;;;;;5047069;28;20671;-73
2021/01/12 09:25:33;;;;;;;2.15;1.10;;;1.90;5.90;;;;;;5049556;28;20300;-74
2021/01/12 09:28:09;;;;;;;1.25;1.15;;;1.90;1.00;;;;;;5042896;28;20684;-71
2021/01/12 09:30:37;;;;;;;1.73;1.00;;;2.00;1.00;;;;;;5054532;28;20207;-72
2021/01/12 09:33:25;;;;;;;1.67;1.25;;;2.00;1.00;;;;;;5083059;28;20262;-73
2021/01/12 09:36:03;;;;;;;1.60;1.25;;;2.00;2.50;;;;;;5089214;28;20207;-72
2021/01/12 09:38:35;;;;;;;1.63;0.95;;;1.90;9.50;;;;;;5087278;28;20210;-74
2021/01/12 09:41:03;;;;;;;1.70;1.10;;;1.90;18.10;;;;;;5083402;28;20219;-76
2021/01/12 09:43:32;;;;;;;1.10;1.00;;;1.90;25.60;;;;;;5070130;28;20247;-74
2021/01/12 09:45:59;;;;;;;2.55;1.88;;;1.80;43.90;;;;;;5069188;28;20680;-72
2021/01/12 09:48:27;;;;;;;2.30;1.20;;;1.80;58.40;;;;;;5071854;28;20214;-74
2021/01/12 09:50:54;;;;;;;2.10;1.00;;;1.80;70.70;;;;;;5070334;28;20219;-74
2021/01/12 09:53:22;;;;;;;2.08;1.20;;;1.70;88.90;;;;;;5088370;28;20272;-74
2021/01/12 09:55:49;;;;;;;1.05;0.90;;;1.70;97.70;;;;;;5071894;28;20298;-73
2021/01/12 09:58:24;;;;;;;2.15;1.40;;;1.70;99.90;;;;;;5089445;28;20219;-73
2021/01/12 10:00:53;;;;;;;1.95;1.20;;;1.70;99.90;;;;;;5090481;28;20283;-73
2021/01/12 10:03:20;;;;;;;1.33;1.23;;;1.70;99.90;;;;;;5098577;28;20201;-75
2021/01/12 10:05:47;;;;;;;3.15;1.08;;;1.80;99.90;;;;;;5094550;28;20213;-72
2021/01/12 10:08:14;;;;;;;1.48;1.15;;;1.80;99.90;;;;;;5062723;28;20300;-74
2021/01/12 10:10:42;;;;;;;1.20;1.10;;;1.90;99.90;;;;;;5067175;28;20203;-75
2021/01/12 10:13:09;;;;;;;1.15;1.02;;;1.80;99.90;;;;;;5088398;28;20593;-75
2021/01/12 10:15:37;;;;;;;3.67;0.95;;;1.80;99.90;;;;;;5085425;28;20218;-74
2021/01/12 10:18:07;;;;;;;1.10;1.00;;;1.80;99.90;;;;;;5086727;28;20910;-75
2021/01/12 10:20:34;;;;;;;1.48;1.10;;;1.70;99.90;;;;;;5083662;28;20210;-74
2021/01/12 10:23:01;;;;;;;0.75;0.75;;;1.70;99.90;;;;;;5069748;28;20254;-73
2021/01/12 10:25:28;;;;;;;1.00;0.90;;;1.60;99.90;;;;;;5068493;28;20235;-72
2021/01/12 10:27:57;;;;;;;2.70;0.75;;;1.60;99.90;;;;;;5071515;28;20271;-71
2021/01/12 10:30:26;;;;;;;0.70;0.70;;;1.60;99.90;;;;;;5087496;28;20827;-78
2021/01/12 10:32:53;;;;;;;0.80;0.80;;;1.60;99.90;;;;;;5068705;28;20227;-71
2021/01/12 10:35:23;;;;;;;0.88;0.88;;;1.60;99.90;;;;;;5068745;28;20515;-73
2021/01/12 10:37:51;;;;;;;0.90;0.90;;;1.60;99.90;;;;;;5085059;28;20213;-74
2021/01/12 10:40:18;;;;;;;2.65;0.82;;;1.60;99.90;;;;;;5086298;28;20339;-76
2021/01/12 10:42:46;;;;;;;2.05;0.73;;;1.60;99.90;;;;;;5083871;28;20307;-74
2021/01/12 10:45:14;;;;;;;1.10;0.93;;;1.60;99.90;;;;;;5083310;28;20238;-74
2021/01/12 10:47:46;;;;;;;0.70;0.70;;;1.60;99.90;;;;;;5091223;28;20207;-75
2021/01/12 10:50:15;;;;;;;1.85;0.85;;;1.60;99.90;;;;;;5073852;28;20239;-74
2021/01/12 10:52:44;;;;;;;0.65;0.60;;;1.60;99.90;;;;;;5069402;28;20847;-73
2021/01/12 10:55:13;;;;;;;1.15;1.05;;;1.60;99.90;;;;;;5069827;28;20235;-73
2021/01/12 10:57:44;;;;;;;4.70;0.80;;;1.60;99.90;;;;;;5073453;28;20663;-71
2021/01/12 11:00:14;;;;;;;0.75;0.65;;;1.70;99.90;;;;;;5065976;28;20231;-76
2021/01/12 11:02:43;;;;;;;1.13;0.80;;;1.60;99.90;;;;;;5087236;28;20454;-75
2021/01/12 11:05:11;;;;;;;1.20;0.70;;;1.60;99.90;;;;;;5083541;28;20261;-73
2021/01/12 11:07:43;;;;;;;1.20;0.95;;;1.60;99.90;;;;;;5086556;28;21268;-75
2021/01/12 11:10:11;;;;;;;1.30;0.80;;;1.60;99.90;;;;;;5072370;28;20491;-73
2021/01/12 11:12:39;;;;;;;0.90;0.80;;;1.60;99.90;;;;;;5087450;28;20214;-73
2021/01/12 11:15:08;;;;;;;1.10;0.80;;;1.60;99.90;;;;;;5087464;28;20520;-76
2021/01/12 11:17:35;;;;;;;0.60;0.60;;;1.60;99.90;;;;;;5095878;28;20548;-73
2021/01/12 11:20:05;;;;;;;0.70;0.60;;;1.60;99.90;;;;;;5088773;28;20197;-71
2021/01/12 11:22:32;;;;;;;2.95;0.93;;;1.60;99.90;;;;;;5086446;28;20228;-73
2021/01/12 11:25:02;;;;;;;1.02;0.70;;;1.60;99.90;;;;;;5089125;28;20224;-74
2021/01/12 11:27:30;;;;;;;2.28;0.60;;;1.60;99.90;;;;;;5087521;28;20217;-73
2021/01/12 11:29:58;;;;;;;0.80;0.70;;;1.50;99.90;;;;;;5092577;28;20223;-73
2021/01/12 11:32:26;;;;;;;1.20;0.63;;;1.50;99.90;;;;;;5090692;28;20799;-73
2021/01/12 11:34:53;;;;;;;0.80;0.60;;;1.60;99.90;;;;;;5095203;28;20241;-73
2021/01/12 11:37:20;;;;;;;0.50;0.50;;;1.60;99.90;;;;;;5091519;28;20198;-72
2021/01/12 11:39:47;;;;;;;0.60;0.60;;;1.60;99.90;;;;;;5077837;28;20805;-73
2021/01/12 11:42:16;;;;;;;0.85;0.60;;;1.60;99.90;;;;;;5092775;28;20205;-74
2021/01/12 11:44:44;;;;;;;0.70;0.70;;;1.60;99.90;;;;;;5080076;28;20710;-73
2021/01/12 11:47:11;;;;;;;0.98;0.77;;;1.60;99.90;;;;;;5084210;28;20215;-73
2021/01/12 11:49:39;;;;;;;1.10;0.77;;;1.70;99.90;;;;;;5089661;28;20210;-73
2021/01/12 11:52:07;;;;;;;0.70;0.70;;;1.70;99.90;;;;;;5088846;28;20200;-73
2021/01/12 11:54:34;;;;;;;0.55;0.55;;;1.80;99.90;;;;;;5086919;28;20233;-73
2021/01/12 11:57:05;;;;;;;0.85;0.60;;;1.80;99.90;;;;;;5089891;28;20211;-73
2021/01/12 11:59:34;;;;;;;0.60;0.60;;;1.80;99.90;;;;;;5070863;28;20217;-73
2021/01/12 12:02:02;;;;;;;0.63;0.50;;;1.70;99.90;;;;;;5089642;28;20207;-73
2021/01/12 12:04:30;;;;;;;0.50;0.50;;;1.70;99.90;;;;;;5064301;28;20225;-75
2021/01/12 12:07:00;;;;;;;0.55;0.50;;;1.70;99.90;;;;;;5085491;28;20227;-75
2021/01/12 12:09:29;;;;;;;0.60;0.60;;;1.80;99.90;;;;;;5085843;28;20879;-72
2021/01/12 12:11:57;;;;;;;0.77;0.57;;;1.80;99.90;;;;;;5081222;28;20297;-75
2021/01/12 12:14:26;;;;;;;1.55;0.82;;;1.80;99.90;;;;;;5091656;28;20581;-72
2021/01/12 12:16:55;;;;;;;1.60;0.95;;;1.80;99.90;;;;;;5088547;28;20257;-74
2021/01/12 12:19:23;;;;;;;0.85;0.60;;;1.80;99.90;;;;;;5097220;28;20204;-73
2021/01/12 12:21:51;;;;;;;0.60;0.60;;;1.80;99.90;;;;;;5087821;28;20233;-73
2021/01/12 12:24:20;;;;;;;0.90;0.70;;;1.80;99.90;;;;;;5094837;28;20347;-73
2021/01/12 12:26:48;;;;;;;0.70;0.70;;;1.80;99.90;;;;;;5088649;28;20215;-73
2021/01/12 12:29:16;;;;;;;0.50;0.50;;;1.80;99.90;;;;;;5077378;28;20762;-74
2021/01/12 12:31:43;;;;;;;0.50;0.50;;;1.80;99.90;;;;;;5094665;28;20230;-76
2021/01/12 12:34:12;;;;;;;0.70;0.57;;;1.80;99.90;;;;;;5077506;28;20231;-73
2021/01/12 12:36:40;;;;;;;0.85;0.55;;;1.80;99.90;;;;;;5101207;28;20214;-74
2021/01/12 12:39:07;;;;;;;0.50;0.50;;;1.80;99.90;;;;;;5091231;28;20225;-72
2021/01/12 12:41:35;;;;;;;0.60;0.60;;;1.80;99.90;;;;;;5085695;28;20222;-76
2021/01/12 12:44:02;;;;;;;1.15;0.50;;;1.90;99.90;;;;;;5085718;28;20626;-75
2021/01/12 12:46:30;;;;;;;0.60;0.60;;;1.80;99.90;;;;;;5094191;28;20222;-73
2021/01/12 12:48:57;;;;;;;0.60;0.60;;;1.80;99.90;;;;;;5090839;28;20205;-73
2021/01/12 12:51:27;;;;;;;0.50;0.50;;;1.80;99.90;;;;;;5092522;28;20296;-74
2021/01/12 12:53:56;;;;;;;0.60;0.60;;;1.90;99.90;;;;;;5092529;28;20265;-73
2021/01/12 12:56:24;;;;;;;0.50;0.50;;;1.90;99.90;;;;;;5080946;28;20228;-73
2021/01/12 12:58:52;;;;;;;0.60;0.45;;;1.80;99.90;;;;;;5094744;28;20219;-73
2021/01/12 13:01:20;;;;;;;1.15;0.70;;;1.90;99.90;;;;;;5089625;28;20211;-74
2021/01/12 13:03:48;;;;;;;0.93;0.60;;;2.00;99.90;;;;;;5092375;28;20255;-72